createdAt,value
2018-03-16T00:00:28.080Z,85.55
2018-03-16T00:01:28.114Z,85.65
2018-03-16T00:02:28.125Z,85.27
2018-03-16T00:03:28.139Z,85.17
2018-03-16T00:04:28.157Z,85.36
2018-03-16T00:05:28.180Z,85.93
2018-03-16T00:06:28.209Z,84.99
2018-03-16T00:07:28.217Z,85.55
2018-03-16T00:08:28.248Z,85.46
2018-03-16T00:09:28.271Z,85.74
2018-03-16T00:10:28.279Z,85.46
2018-03-16T00:11:28.304Z,85.27
2018-03-16T00:12:28.320Z,85.65
2018-03-16T00:13:28.338Z,85.08
2018-03-16T00:14:28.364Z,85.46
2018-03-16T00:15:28.382Z,85.55
2018-03-16T00:16:28.399Z,85.46
2018-03-16T00:17:28.429Z,85.36
2018-03-16T00:18:28.449Z,85.46
2018-03-16T00:19:28.456Z,85.55
2018-03-16T00:20:28.481Z,84.99
2018-03-16T00:21:28.498Z,85.27
2018-03-16T00:22:28.519Z,85.27
2018-03-16T00:23:28.535Z,85.65
2018-03-16T00:24:28.557Z,85.17
2018-03-16T00:25:28.596Z,85.08
2018-03-16T00:26:28.607Z,85.55
2018-03-16T00:27:28.630Z,85.27
2018-03-16T00:28:28.641Z,85.36
2018-03-16T00:29:28.660Z,85.36
2018-03-16T00:30:28.688Z,85.27
2018-03-16T00:31:28.701Z,85.27
2018-03-16T00:32:28.721Z,85.27
2018-03-16T00:33:28.747Z,85.17
2018-03-16T00:34:28.770Z,84.80
2018-03-16T00:35:28.777Z,84.89
2018-03-16T00:36:28.802Z,85.08
2018-03-16T00:37:28.830Z,85.17
2018-03-16T00:38:28.853Z,84.99
2018-03-16T00:39:28.859Z,85.17
2018-03-16T00:40:28.876Z,84.99
2018-03-16T00:41:28.909Z,85.08
2018-03-16T00:42:28.916Z,85.08
2018-03-16T00:43:28.940Z,84.70
2018-03-16T00:44:28.956Z,85.46
2018-03-16T00:45:28.976Z,84.89
2018-03-16T00:46:28.998Z,85.08
2018-03-16T00:47:29.018Z,85.17
2018-03-16T00:48:29.048Z,85.36
2018-03-16T00:49:29.063Z,85.08
2018-03-16T00:50:29.081Z,85.17
2018-03-16T00:51:29.108Z,85.36
2018-03-16T00:52:29.119Z,84.70
2018-03-16T00:53:29.140Z,85.08
2018-03-16T00:54:29.162Z,85.08
2018-03-16T00:55:29.181Z,85.08
2018-03-16T00:56:29.204Z,84.99
2018-03-16T00:57:29.225Z,84.80
2018-03-16T00:58:29.239Z,84.70
2018-03-16T00:59:29.261Z,84.99
2018-03-16T01:00:29.279Z,85.08
2018-03-16T01:01:29.297Z,85.46
2018-03-16T01:02:30.206Z,85.08
2018-03-16T01:03:29.335Z,84.80
2018-03-16T01:04:29.425Z,84.89
2018-03-16T01:05:29.385Z,85.17
2018-03-16T01:06:29.402Z,84.99
2018-03-16T01:07:29.415Z,84.89
2018-03-16T01:08:29.437Z,84.99
2018-03-16T01:09:29.459Z,84.89
2018-03-16T01:10:29.481Z,84.99
2018-03-16T01:11:29.497Z,84.89
2018-03-16T01:12:29.526Z,84.99
2018-03-16T01:13:29.547Z,84.70
2018-03-16T01:14:29.629Z,84.89
2018-03-16T01:15:29.670Z,84.70
2018-03-16T01:16:29.602Z,85.46
2018-03-16T01:17:30.206Z,84.42
2018-03-16T01:18:29.642Z,84.89
2018-03-16T01:19:29.653Z,85.08
2018-03-16T01:20:29.685Z,84.61
2018-03-16T01:21:29.700Z,84.70
2018-03-16T01:22:29.717Z,84.13
2018-03-16T01:23:29.734Z,84.04
2018-03-16T01:24:29.752Z,84.04
2018-03-16T01:25:29.776Z,84.32
2018-03-16T01:26:29.796Z,84.32
2018-03-16T01:27:29.813Z,84.80
2018-03-16T01:28:29.848Z,83.75
2018-03-16T01:29:29.870Z,84.13
2018-03-16T01:30:29.888Z,84.32
2018-03-16T01:31:29.891Z,84.42
2018-03-16T01:32:29.926Z,84.23
2018-03-16T01:33:29.933Z,84.32
2018-03-16T01:34:29.953Z,83.56
2018-03-16T01:35:29.972Z,83.66
2018-03-16T01:36:30.016Z,83.66
2018-03-16T01:37:30.025Z,83.52
2018-03-16T01:38:30.034Z,83.56
2018-03-16T01:39:30.055Z,83.94
2018-03-16T01:40:30.091Z,83.66
2018-03-16T01:41:30.099Z,83.47
2018-03-16T01:42:30.115Z,83.56
2018-03-16T01:43:30.145Z,83.37
2018-03-16T01:44:30.154Z,83.43
2018-03-16T01:45:30.183Z,83.05
2018-03-16T01:46:30.197Z,83.43
2018-03-16T01:47:30.217Z,83.14
2018-03-16T01:48:30.241Z,83.43
2018-03-16T01:49:30.254Z,83.62
2018-03-16T01:50:30.273Z,82.81
2018-03-16T01:51:30.314Z,82.76
2018-03-16T01:52:30.310Z,82.71
2018-03-16T01:53:30.336Z,82.57
2018-03-16T01:54:30.352Z,83.37
2018-03-16T01:55:30.370Z,82.86
2018-03-16T01:56:30.392Z,82.62
2018-03-16T01:57:30.409Z,82.48
2018-03-16T01:58:30.435Z,82.67
2018-03-16T01:59:30.452Z,82.67
2018-03-16T02:00:30.470Z,82.29
2018-03-16T02:01:30.497Z,82.39
2018-03-16T02:02:30.505Z,82.57
2018-03-16T02:03:30.526Z,82.48
2018-03-16T02:04:30.553Z,82.71
2018-03-16T02:05:30.571Z,82.48
2018-03-16T02:06:30.597Z,82.29
2018-03-16T02:07:30.608Z,82.29
2018-03-16T02:08:30.627Z,81.53
2018-03-16T02:09:30.651Z,81.82
2018-03-16T02:10:30.665Z,81.82
2018-03-16T02:11:30.683Z,81.53
2018-03-16T02:12:30.703Z,81.53
2018-03-16T02:13:30.727Z,81.92
2018-03-16T02:14:30.745Z,81.92
2018-03-16T02:15:30.764Z,81.92
2018-03-16T02:16:30.786Z,81.53
2018-03-16T02:17:30.805Z,81.53
2018-03-16T02:18:30.824Z,81.82
2018-03-16T02:19:30.841Z,81.25
2018-03-16T02:20:30.869Z,81.10
2018-03-16T02:21:30.880Z,81.20
2018-03-16T02:22:30.909Z,81.25
2018-03-16T02:23:30.921Z,81.15
2018-03-16T02:24:30.942Z,81.53
2018-03-16T02:25:30.961Z,81.29
2018-03-16T02:26:30.979Z,80.77
2018-03-16T02:27:31.001Z,80.77
2018-03-16T02:28:31.020Z,80.40
2018-03-16T02:29:31.037Z,81.01
2018-03-16T02:30:31.087Z,80.87
2018-03-16T02:31:31.088Z,80.77
2018-03-16T02:32:31.099Z,80.49
2018-03-16T02:33:31.123Z,81.06
2018-03-16T02:34:31.139Z,80.58
2018-03-16T02:35:31.161Z,80.77
2018-03-16T02:36:31.175Z,81.25
2018-03-16T02:37:31.198Z,81.06
2018-03-16T02:38:31.215Z,80.58
2018-03-16T02:39:31.239Z,80.49
2018-03-16T02:40:31.265Z,80.30
2018-03-16T02:41:31.280Z,81.06
2018-03-16T02:42:31.299Z,80.30
2018-03-16T02:43:31.322Z,81.25
2018-03-16T02:44:31.345Z,80.68
2018-03-16T02:45:31.364Z,80.77
2018-03-16T02:46:31.380Z,80.96
2018-03-16T02:47:31.393Z,80.77
2018-03-16T02:48:31.413Z,80.21
2018-03-16T02:49:31.439Z,80.77
2018-03-16T02:50:31.459Z,80.49
2018-03-16T02:51:31.472Z,80.58
2018-03-16T02:52:31.488Z,80.58
2018-03-16T02:53:31.524Z,80.49
2018-03-16T02:54:31.530Z,80.49
2018-03-16T02:55:31.555Z,80.11
2018-03-16T02:56:31.573Z,80.77
2018-03-16T02:57:31.602Z,80.58
2018-03-16T02:58:31.620Z,81.15
2018-03-16T02:59:31.689Z,81.15
2018-03-16T03:00:31.648Z,80.77
2018-03-16T03:01:31.670Z,80.21
2018-03-16T03:02:31.699Z,80.21
2018-03-16T03:03:31.714Z,80.02
2018-03-16T03:04:31.730Z,80.21
2018-03-16T03:05:31.747Z,80.40
2018-03-16T03:06:31.770Z,80.58
2018-03-16T03:07:31.800Z,79.64
2018-03-16T03:08:31.803Z,80.30
2018-03-16T03:09:31.836Z,80.77
2018-03-16T03:10:31.919Z,80.58
2018-03-16T03:11:31.864Z,80.02
2018-03-16T03:12:31.943Z,80.11
2018-03-16T03:13:31.913Z,80.30
2018-03-16T03:14:31.923Z,79.74
2018-03-16T03:15:31.952Z,79.64
2018-03-16T03:16:31.959Z,80.30
2018-03-16T03:17:31.979Z,80.21
2018-03-16T03:18:32.005Z,80.77
2018-03-16T03:19:32.026Z,80.58
2018-03-16T03:20:32.042Z,80.02
2018-03-16T03:21:32.055Z,79.74
2018-03-16T03:22:32.084Z,80.02
2018-03-16T03:23:32.094Z,80.21
2018-03-16T03:24:32.115Z,80.11
2018-03-16T03:25:32.137Z,79.74
2018-03-16T03:26:32.162Z,80.49
2018-03-16T03:27:32.172Z,80.11
2018-03-16T03:28:32.200Z,79.74
2018-03-16T03:29:32.222Z,80.58
2018-03-16T03:30:32.246Z,80.40
2018-03-16T03:31:32.263Z,80.77
2018-03-16T03:32:32.283Z,79.83
2018-03-16T03:33:32.295Z,80.21
2018-03-16T03:34:32.310Z,80.30
2018-03-16T03:35:32.335Z,80.11
2018-03-16T03:36:32.362Z,80.30
2018-03-16T03:37:32.377Z,79.83
2018-03-16T03:38:32.394Z,79.74
2018-03-16T03:39:32.412Z,79.55
2018-03-16T03:40:32.435Z,79.83
2018-03-16T03:41:32.454Z,80.11
2018-03-16T03:42:32.476Z,80.11
2018-03-16T03:43:32.494Z,80.02
2018-03-16T03:44:32.512Z,80.30
2018-03-16T03:45:32.540Z,79.74
2018-03-16T03:46:32.556Z,79.74
2018-03-16T03:47:32.572Z,79.74
2018-03-16T03:48:32.595Z,79.93
2018-03-16T03:49:32.607Z,79.64
2018-03-16T03:50:32.625Z,79.83
2018-03-16T03:51:32.662Z,80.30
2018-03-16T03:52:32.666Z,80.11
2018-03-16T03:53:32.691Z,80.11
2018-03-16T03:54:32.715Z,79.74
2018-03-16T03:55:32.723Z,80.49
2018-03-16T03:56:32.754Z,80.02
2018-03-16T03:57:32.766Z,80.02
2018-03-16T03:58:32.784Z,80.21
2018-03-16T03:59:32.811Z,79.93
2018-03-16T04:00:32.823Z,80.02
2018-03-16T04:01:32.860Z,80.68
2018-03-16T04:02:32.886Z,80.49
2018-03-16T04:03:32.880Z,80.49
2018-03-16T04:04:32.904Z,80.21
2018-03-16T04:05:32.925Z,80.96
2018-03-16T04:06:32.939Z,80.58
2018-03-16T04:07:32.977Z,80.68
2018-03-16T04:08:32.976Z,80.77
2018-03-16T04:09:33.006Z,80.11
2018-03-16T04:10:33.020Z,80.02
2018-03-16T04:11:33.040Z,80.40
2018-03-16T04:12:33.056Z,80.40
2018-03-16T04:13:33.136Z,79.74
2018-03-16T04:14:33.095Z,80.58
2018-03-16T04:15:33.168Z,79.74
2018-03-16T04:16:33.133Z,80.11
2018-03-16T04:17:33.154Z,80.21
2018-03-16T04:18:33.171Z,79.74
2018-03-16T04:19:33.194Z,80.49
2018-03-16T04:20:33.212Z,80.58
2018-03-16T04:21:33.233Z,80.58
2018-03-16T04:22:33.249Z,79.83
2018-03-16T04:23:33.271Z,80.11
2018-03-16T04:24:33.290Z,79.64
2018-03-16T04:25:33.310Z,79.74
2018-03-16T04:26:33.346Z,80.30
2018-03-16T04:27:33.347Z,80.21
2018-03-16T04:28:33.368Z,80.21
2018-03-16T04:29:33.388Z,80.58
2018-03-16T04:30:33.409Z,80.58
2018-03-16T04:31:33.430Z,80.77
2018-03-16T04:32:33.457Z,80.21
2018-03-16T04:33:33.465Z,80.49
2018-03-16T04:34:33.496Z,80.68
2018-03-16T04:35:33.508Z,80.87
2018-03-16T04:36:33.521Z,80.68
2018-03-16T04:37:33.545Z,80.77
2018-03-16T04:38:33.568Z,80.49
2018-03-16T04:39:33.592Z,80.49
2018-03-16T04:40:33.600Z,80.49
2018-03-16T04:41:33.624Z,80.77
2018-03-16T04:42:33.643Z,80.40
2018-03-16T04:43:33.705Z,80.11
2018-03-16T04:44:33.680Z,81.34
2018-03-16T04:45:33.700Z,80.68
2018-03-16T04:46:33.724Z,80.58
2018-03-16T04:47:33.738Z,80.58
2018-03-16T04:48:33.757Z,80.58
2018-03-16T04:49:33.775Z,80.30
2018-03-16T04:50:33.795Z,80.49
2018-03-16T04:51:33.816Z,80.21
2018-03-16T04:52:33.856Z,79.93
2018-03-16T04:53:33.854Z,80.02
2018-03-16T04:54:33.893Z,79.93
2018-03-16T04:55:33.893Z,80.11
2018-03-16T04:56:33.913Z,80.58
2018-03-16T04:57:33.941Z,80.68
2018-03-16T04:58:33.960Z,80.11
2018-03-16T04:59:33.977Z,80.68
2018-03-16T05:00:34.007Z,80.58
2018-03-16T05:01:34.011Z,80.40
2018-03-16T05:02:34.042Z,80.21
2018-03-16T05:03:34.046Z,80.77
2018-03-16T05:04:34.076Z,80.49
2018-03-16T05:05:34.099Z,80.02
2018-03-16T05:06:34.107Z,79.83
2018-03-16T05:07:34.127Z,80.11
2018-03-16T05:08:34.147Z,80.11
2018-03-16T05:09:34.168Z,79.83
2018-03-16T05:10:34.189Z,79.74
2018-03-16T05:11:34.205Z,79.93
2018-03-16T05:12:34.224Z,80.11
2018-03-16T05:13:34.247Z,80.11
2018-03-16T05:14:34.264Z,80.77
2018-03-16T05:15:34.281Z,80.30
2018-03-16T05:16:34.402Z,80.11
2018-03-16T05:17:34.316Z,80.40
2018-03-16T05:18:34.340Z,80.21
2018-03-16T05:19:34.357Z,79.93
2018-03-16T05:20:34.379Z,80.02
2018-03-16T05:21:34.407Z,80.40
2018-03-16T05:22:34.437Z,80.30
2018-03-16T05:23:34.434Z,79.83
2018-03-16T05:24:34.463Z,79.83
2018-03-16T05:25:34.473Z,79.74
2018-03-16T05:26:34.508Z,80.77
2018-03-16T05:27:34.509Z,80.11
2018-03-16T05:28:34.542Z,80.11
2018-03-16T05:29:34.552Z,80.11
2018-03-16T05:30:34.630Z,80.11
2018-03-16T05:31:34.604Z,80.49
2018-03-16T05:32:34.626Z,80.11
2018-03-16T05:33:34.647Z,80.30
2018-03-16T05:34:34.652Z,80.02
2018-03-16T05:35:34.686Z,79.83
2018-03-16T05:36:34.691Z,79.60
2018-03-16T05:37:34.708Z,79.83
2018-03-16T05:38:34.728Z,79.93
2018-03-16T05:39:34.755Z,80.02
2018-03-16T05:40:34.775Z,79.83
2018-03-16T05:41:34.807Z,80.21
2018-03-16T05:42:34.806Z,79.64
2018-03-16T05:43:34.819Z,80.21
2018-03-16T05:44:34.844Z,79.79
2018-03-16T05:45:34.863Z,80.40
2018-03-16T05:46:34.894Z,79.83
2018-03-16T05:47:34.899Z,80.40
2018-03-16T05:48:34.915Z,79.83
2018-03-16T05:49:34.937Z,79.60
2018-03-16T05:50:34.956Z,79.69
2018-03-16T05:51:34.979Z,80.21
2018-03-16T05:52:34.999Z,79.93
2018-03-16T05:53:35.028Z,79.88
2018-03-16T05:54:35.047Z,79.55
2018-03-16T05:55:35.095Z,79.69
2018-03-16T05:56:35.089Z,79.79
2018-03-16T05:57:35.094Z,79.74
2018-03-16T05:58:35.127Z,80.40
2018-03-16T05:59:35.129Z,79.83
2018-03-16T06:00:35.151Z,80.02
2018-03-16T06:01:35.182Z,79.45
2018-03-16T06:02:35.194Z,79.45
2018-03-16T06:03:35.211Z,79.74
2018-03-16T06:04:35.230Z,79.64
2018-03-16T06:05:35.245Z,80.02
2018-03-16T06:06:35.264Z,79.93
2018-03-16T06:07:35.283Z,79.93
2018-03-16T06:08:35.318Z,79.17
2018-03-16T06:09:35.321Z,80.11
2018-03-16T06:10:35.350Z,80.40
2018-03-16T06:11:35.400Z,80.21
2018-03-16T06:12:35.388Z,79.93
2018-03-16T06:13:35.402Z,79.83
2018-03-16T06:14:35.428Z,80.11
2018-03-16T06:15:35.460Z,81.53
2018-03-16T06:16:35.462Z,80.77
2018-03-16T06:17:35.482Z,80.49
2018-03-16T06:18:35.494Z,80.96
2018-03-16T06:19:36.205Z,80.49
2018-03-16T06:20:35.539Z,80.21
2018-03-16T06:21:35.571Z,81.15
2018-03-16T06:22:35.573Z,80.87
2018-03-16T06:23:35.609Z,80.87
2018-03-16T06:24:35.611Z,81.15
2018-03-16T06:25:35.627Z,80.96
2018-03-16T06:26:35.656Z,80.21
2018-03-16T06:27:35.676Z,80.40
2018-03-16T06:28:35.692Z,79.64
2018-03-16T06:29:35.721Z,79.55
2018-03-16T06:30:35.750Z,80.02
2018-03-16T06:31:35.751Z,79.93
2018-03-16T06:32:35.790Z,80.11
2018-03-16T06:33:35.793Z,80.02
2018-03-16T06:34:35.816Z,80.02
2018-03-16T06:35:35.822Z,79.17
2018-03-16T06:36:35.845Z,79.93
2018-03-16T06:37:35.860Z,80.11
2018-03-16T06:38:35.891Z,79.26
2018-03-16T06:39:35.902Z,78.69
2018-03-16T06:40:35.930Z,79.55
2018-03-16T06:41:35.956Z,78.69
2018-03-16T06:42:35.966Z,77.65
2018-03-16T06:43:35.990Z,77.65
2018-03-16T06:44:36.086Z,77.46
2018-03-16T06:45:36.022Z,77.18
2018-03-16T06:46:36.038Z,77.46
2018-03-16T06:47:36.057Z,77.46
2018-03-16T06:48:36.076Z,76.99
2018-03-16T06:49:36.096Z,76.32
2018-03-16T06:50:36.118Z,76.42
2018-03-16T06:51:36.165Z,76.51
2018-03-16T06:52:36.161Z,76.70
2018-03-16T06:53:36.176Z,76.80
2018-03-16T06:54:36.193Z,76.48
2018-03-16T06:55:36.215Z,76.61
2018-03-16T06:56:36.232Z,76.57
2018-03-16T06:57:36.266Z,76.67
2018-03-16T06:58:36.275Z,77.04
2018-03-16T06:59:36.289Z,77.23
2018-03-16T07:00:36.307Z,77.04
2018-03-16T07:01:36.332Z,77.04
2018-03-16T07:02:36.348Z,77.14
2018-03-16T07:03:36.371Z,77.04
2018-03-16T07:04:36.383Z,77.14
2018-03-16T07:05:36.412Z,77.14
2018-03-16T07:06:36.438Z,77.18
2018-03-16T07:07:36.445Z,77.08
2018-03-16T07:08:36.486Z,76.80
2018-03-16T07:09:36.507Z,76.32
2018-03-16T07:10:36.516Z,76.80
2018-03-16T07:11:36.525Z,76.95
2018-03-16T07:12:36.540Z,76.67
2018-03-16T07:13:36.559Z,76.38
2018-03-16T07:14:36.576Z,76.67
2018-03-16T07:15:36.594Z,76.42
2018-03-16T07:16:36.615Z,76.38
2018-03-16T07:17:36.647Z,76.57
2018-03-16T07:18:36.654Z,76.67
2018-03-16T07:20:36.698Z,76.19
2018-03-16T07:21:36.717Z,76.48
2018-03-16T07:22:36.747Z,76.57
2018-03-16T07:23:36.774Z,76.48
2018-03-16T07:24:36.769Z,76.57
2018-03-16T07:25:36.796Z,76.57
2018-03-16T07:26:36.819Z,75.91
2018-03-16T07:27:36.842Z,76.48
2018-03-16T07:28:36.855Z,76.38
2018-03-16T07:29:36.925Z,76.19
2018-03-16T07:30:36.895Z,75.91
2018-03-16T07:31:36.912Z,76.48
2018-03-16T07:32:36.922Z,76.48
2018-03-16T07:33:36.954Z,76.48
2018-03-16T07:34:36.975Z,76.57
2018-03-16T07:35:36.985Z,76.10
2018-03-16T07:36:37.003Z,75.62
2018-03-16T07:37:37.024Z,75.91
2018-03-16T07:38:37.039Z,75.81
2018-03-16T07:39:37.063Z,75.62
2018-03-16T07:40:37.078Z,75.62
2018-03-16T07:41:37.096Z,75.53
2018-03-16T07:42:37.111Z,76.19
2018-03-16T07:43:37.139Z,75.91
2018-03-16T07:44:37.156Z,75.72
2018-03-16T07:45:37.173Z,75.53
2018-03-16T07:46:37.198Z,75.53
2018-03-16T07:47:37.261Z,76.00
2018-03-16T07:48:37.249Z,75.43
2018-03-16T07:49:37.254Z,75.72
2018-03-16T07:50:37.302Z,75.15
2018-03-16T07:51:37.315Z,75.72
2018-03-16T07:52:37.315Z,75.62
2018-03-16T07:53:37.341Z,75.53
2018-03-16T07:54:37.346Z,75.34
2018-03-16T07:55:37.361Z,75.05
2018-03-16T07:56:37.387Z,75.05
2018-03-16T07:57:37.403Z,75.15
2018-03-16T07:58:37.421Z,75.43
2018-03-16T07:59:37.461Z,75.05
2018-03-16T08:00:37.475Z,75.34
2018-03-16T08:01:37.483Z,75.05
2018-03-16T08:02:37.497Z,75.43
2018-03-16T08:03:37.521Z,76.10
2018-03-16T08:04:37.553Z,75.62
2018-03-16T08:05:37.635Z,74.77
2018-03-16T08:06:37.584Z,75.05
2018-03-16T08:07:37.618Z,75.24
2018-03-16T08:08:37.631Z,75.15
2018-03-16T08:09:37.631Z,74.77
2018-03-16T08:10:37.657Z,74.77
2018-03-16T08:11:37.666Z,74.87
2018-03-16T08:12:37.687Z,74.77
2018-03-16T08:13:37.707Z,75.05
2018-03-16T08:14:37.726Z,75.05
2018-03-16T08:15:37.748Z,75.05
2018-03-16T08:16:37.771Z,74.87
2018-03-16T08:17:37.786Z,75.05
2018-03-16T08:18:37.817Z,74.40
2018-03-16T08:19:37.828Z,74.21
2018-03-16T08:20:37.845Z,74.96
2018-03-16T08:21:37.859Z,75.05
2018-03-16T08:22:37.889Z,74.96
2018-03-16T08:23:37.902Z,74.77
2018-03-16T08:24:37.921Z,74.96
2018-03-16T08:25:37.947Z,75.24
2018-03-16T08:26:37.960Z,74.40
2018-03-16T08:27:37.975Z,74.40
2018-03-16T08:28:38.001Z,74.96
2018-03-16T08:29:38.015Z,74.87
2018-03-16T08:30:38.035Z,74.77
2018-03-16T08:31:38.057Z,75.09
2018-03-16T08:32:38.072Z,74.77
2018-03-16T08:33:38.089Z,75.05
2018-03-16T08:34:38.112Z,74.30
2018-03-16T08:35:38.125Z,74.40
2018-03-16T08:36:38.155Z,74.11
2018-03-16T08:37:38.170Z,74.02
2018-03-16T08:38:38.194Z,73.92
2018-03-16T08:39:38.210Z,74.11
2018-03-16T08:40:38.225Z,74.21
2018-03-16T08:41:38.247Z,74.77
2018-03-16T08:42:38.264Z,75.15
2018-03-16T08:43:38.280Z,75.05
2018-03-16T08:44:38.301Z,74.96
2018-03-16T08:45:38.319Z,74.87
2018-03-16T08:46:38.348Z,75.09
2018-03-16T08:47:38.356Z,74.87
2018-03-16T08:48:38.382Z,74.11
2018-03-16T08:49:38.393Z,74.58
2018-03-16T08:50:38.415Z,74.30
2018-03-16T08:51:38.452Z,74.40
2018-03-16T08:52:38.505Z,74.21
2018-03-16T08:53:38.487Z,74.68
2018-03-16T08:54:38.506Z,74.96
2018-03-16T08:55:38.511Z,74.77
2018-03-16T08:56:38.544Z,74.96
2018-03-16T08:57:38.552Z,74.40
2018-03-16T08:58:38.570Z,74.02
2018-03-16T08:59:38.590Z,75.05
2018-03-16T09:00:38.612Z,74.87
2018-03-16T09:01:38.626Z,75.15
2018-03-16T09:02:38.648Z,74.77
2018-03-16T09:03:38.668Z,74.87
2018-03-16T09:04:38.681Z,75.05
2018-03-16T09:05:38.703Z,75.24
2018-03-16T09:06:38.876Z,75.24
2018-03-16T09:07:38.748Z,74.87
2018-03-16T09:08:38.769Z,74.77
2018-03-16T09:09:38.782Z,75.62
2018-03-16T09:10:38.807Z,75.34
2018-03-16T09:11:38.826Z,75.34
2018-03-16T09:12:38.909Z,75.15
2018-03-16T09:13:38.873Z,74.77
2018-03-16T09:14:38.886Z,74.58
2018-03-16T09:15:38.895Z,74.40
2018-03-16T09:16:38.924Z,75.15
2018-03-16T09:17:38.936Z,74.87
2018-03-16T09:18:38.952Z,74.87
2018-03-16T09:19:38.978Z,75.15
2018-03-16T09:20:38.994Z,74.40
2018-03-16T09:21:39.022Z,74.02
2018-03-16T09:22:39.041Z,74.58
2018-03-16T09:23:39.056Z,74.40
2018-03-16T09:24:39.076Z,74.02
2018-03-16T09:25:39.097Z,74.49
2018-03-16T09:26:39.325Z,73.73
2018-03-16T09:27:39.129Z,74.40
2018-03-16T09:28:39.152Z,74.49
2018-03-16T09:29:39.169Z,74.40
2018-03-16T09:30:39.185Z,74.96
2018-03-16T09:31:39.200Z,75.05
2018-03-16T09:32:39.229Z,74.96
2018-03-16T09:33:39.240Z,75.34
2018-03-16T09:34:39.267Z,75.81
2018-03-16T09:35:39.277Z,75.53
2018-03-16T09:36:39.400Z,75.62
2018-03-16T09:37:39.315Z,75.53
2018-03-16T09:38:39.349Z,75.72
2018-03-16T09:39:39.370Z,76.48
2018-03-16T09:40:39.375Z,76.38
2018-03-16T09:41:39.391Z,76.10
2018-03-16T09:42:39.416Z,76.00
2018-03-16T09:43:39.429Z,76.48
2018-03-16T09:44:39.449Z,75.91
2018-03-16T09:45:39.486Z,76.67
2018-03-16T09:46:39.489Z,76.57
2018-03-16T09:47:39.535Z,76.38
2018-03-16T09:48:39.534Z,76.10
2018-03-16T09:49:39.550Z,75.72
2018-03-16T09:50:39.606Z,76.00
2018-03-16T09:51:39.598Z,76.10
2018-03-16T09:52:39.617Z,76.19
2018-03-16T09:53:39.621Z,75.62
2018-03-16T09:54:39.651Z,75.91
2018-03-16T09:55:39.674Z,76.67
2018-03-16T09:56:39.679Z,75.53
2018-03-16T09:57:39.701Z,75.24
2018-03-16T09:58:39.726Z,75.72
2018-03-16T09:59:39.735Z,76.67
2018-03-16T10:00:39.757Z,75.91
2018-03-16T10:01:39.777Z,75.15
2018-03-16T10:02:39.790Z,74.96
2018-03-16T10:03:39.813Z,74.87
2018-03-16T10:04:39.864Z,74.87
2018-03-16T10:05:39.866Z,74.58
2018-03-16T10:06:39.878Z,75.05
2018-03-16T10:07:39.904Z,75.05
2018-03-16T10:08:39.929Z,74.96
2018-03-16T10:09:39.930Z,74.87
2018-03-16T10:10:39.951Z,74.96
2018-03-16T10:11:39.983Z,75.24
2018-03-16T10:12:39.988Z,75.72
2018-03-16T10:13:40.010Z,75.24
2018-03-16T10:14:40.027Z,75.05
2018-03-16T10:15:40.040Z,74.87
2018-03-16T10:16:40.061Z,75.05
2018-03-16T10:17:40.095Z,75.53
2018-03-16T10:18:40.107Z,75.05
2018-03-16T10:19:40.121Z,75.24
2018-03-16T10:20:40.148Z,75.81
2018-03-16T10:21:40.163Z,75.91
2018-03-16T10:22:40.181Z,74.87
2018-03-16T10:23:40.195Z,75.15
2018-03-16T10:24:40.210Z,74.96
2018-03-16T10:25:40.280Z,74.96
2018-03-16T10:26:40.257Z,74.49
2018-03-16T10:27:40.272Z,74.49
2018-03-16T10:28:40.296Z,74.58
2018-03-16T10:29:40.311Z,74.30
2018-03-16T10:30:40.337Z,75.05
2018-03-16T10:31:40.346Z,74.77
2018-03-16T10:32:40.364Z,75.43
2018-03-16T10:33:40.391Z,75.34
2018-03-16T10:34:40.410Z,75.43
2018-03-16T10:35:40.428Z,74.58
2018-03-16T10:36:40.456Z,74.49
2018-03-16T10:37:40.459Z,74.96
2018-03-16T10:38:40.481Z,74.68
2018-03-16T10:39:40.498Z,74.11
2018-03-16T10:40:40.516Z,75.15
2018-03-16T10:41:40.537Z,74.87
2018-03-16T10:42:40.562Z,74.96
2018-03-16T10:43:40.583Z,74.58
2018-03-16T10:44:40.598Z,74.11
2018-03-16T10:45:40.624Z,74.30
2018-03-16T10:46:40.638Z,73.73
2018-03-16T10:47:40.659Z,74.02
2018-03-16T10:48:40.677Z,74.11
2018-03-16T10:49:40.694Z,74.02
2018-03-16T10:50:40.714Z,74.21
2018-03-16T10:51:40.734Z,74.11
2018-03-16T10:52:40.746Z,74.02
2018-03-16T10:53:40.799Z,74.02
2018-03-16T10:54:40.795Z,73.64
2018-03-16T10:55:40.808Z,73.64
2018-03-16T10:56:40.840Z,73.83
2018-03-16T10:57:40.845Z,73.83
2018-03-16T10:58:40.864Z,73.26
2018-03-16T10:59:40.881Z,73.16
2018-03-16T11:00:40.908Z,73.64
2018-03-16T11:01:40.927Z,74.49
2018-03-16T11:02:40.995Z,73.83
2018-03-16T11:03:40.962Z,73.26
2018-03-16T11:04:40.986Z,72.97
2018-03-16T11:05:40.996Z,73.26
2018-03-16T11:06:41.015Z,73.45
2018-03-16T11:07:41.035Z,73.26
2018-03-16T11:08:41.065Z,73.35
2018-03-16T11:09:41.074Z,73.64
2018-03-16T11:10:41.095Z,73.16
2018-03-16T11:11:41.111Z,73.07
2018-03-16T11:12:41.134Z,73.54
2018-03-16T11:13:41.154Z,73.26
2018-03-16T11:14:41.165Z,73.54
2018-03-16T11:15:41.186Z,73.26
2018-03-16T11:16:41.279Z,73.26
2018-03-16T11:17:41.227Z,72.97
2018-03-16T11:18:41.247Z,72.78
2018-03-16T11:19:41.278Z,73.07
2018-03-16T11:20:41.285Z,73.16
2018-03-16T11:21:41.305Z,73.35
2018-03-16T11:22:41.326Z,73.45
2018-03-16T11:23:41.343Z,73.26
2018-03-16T11:24:41.355Z,73.73
2018-03-16T11:25:41.387Z,74.11
2018-03-16T11:26:41.413Z,73.64
2018-03-16T11:27:41.423Z,73.26
2018-03-16T11:28:41.439Z,73.73
2018-03-16T11:29:41.470Z,73.92
2018-03-16T11:30:41.477Z,73.83
2018-03-16T11:31:41.499Z,73.92
2018-03-16T11:32:41.511Z,73.92
2018-03-16T11:33:41.531Z,74.40
2018-03-16T11:34:41.553Z,74.40
2018-03-16T11:35:41.573Z,75.05
2018-03-16T11:36:41.607Z,75.34
2018-03-16T11:37:41.620Z,75.72
2018-03-16T11:38:41.630Z,75.72
2018-03-16T11:39:41.649Z,74.96
2018-03-16T11:40:41.684Z,74.11
2018-03-16T11:41:41.681Z,74.21
2018-03-16T11:42:42.215Z,74.30
2018-03-16T11:43:41.725Z,74.40
2018-03-16T11:44:41.742Z,75.53
2018-03-16T11:45:41.771Z,75.15
2018-03-16T11:46:41.785Z,75.43
2018-03-16T11:47:41.814Z,75.34
2018-03-16T11:48:41.815Z,75.72
2018-03-16T11:49:41.837Z,75.53
2018-03-16T11:50:41.853Z,75.81
2018-03-16T11:51:41.884Z,75.72
2018-03-16T11:52:41.891Z,75.62
2018-03-16T11:54:41.939Z,75.91
2018-03-16T11:55:41.953Z,76.48
2018-03-16T11:56:41.980Z,75.91
2018-03-16T11:57:41.986Z,76.19
2018-03-16T11:58:42.018Z,75.62
2018-03-16T11:59:42.064Z,75.81
2018-03-16T12:00:42.047Z,75.34
2018-03-16T12:01:42.067Z,75.62
2018-03-16T12:02:42.114Z,75.72
2018-03-16T12:03:42.112Z,75.53
2018-03-16T12:04:42.132Z,75.91
2018-03-16T12:05:42.139Z,75.91
2018-03-16T12:06:42.159Z,75.53
2018-03-16T12:07:42.180Z,76.00
2018-03-16T12:08:42.203Z,76.00
2018-03-16T12:09:42.239Z,75.62
2018-03-16T12:10:42.241Z,76.00
2018-03-16T12:11:42.261Z,76.10
2018-03-16T12:12:42.273Z,76.38
2018-03-16T12:13:42.299Z,75.62
2018-03-16T12:14:42.314Z,75.53
2018-03-16T12:15:42.330Z,75.24
2018-03-16T12:16:42.358Z,75.34
2018-03-16T12:17:42.370Z,75.53
2018-03-16T12:18:42.391Z,75.62
2018-03-16T12:19:42.413Z,75.53
2018-03-16T12:20:42.428Z,75.43
2018-03-16T12:21:42.535Z,75.72
2018-03-16T12:22:42.469Z,75.62
2018-03-16T12:23:42.480Z,76.00
2018-03-16T12:24:42.504Z,75.72
2018-03-16T12:25:42.520Z,75.53
2018-03-16T12:26:42.544Z,75.81
2018-03-16T12:27:42.558Z,75.62
2018-03-16T12:28:49.814Z,76.10
2018-03-16T12:29:42.600Z,76.48
2018-03-16T12:30:42.624Z,76.00
2018-03-16T12:31:42.632Z,75.72
2018-03-16T12:32:42.665Z,75.62
2018-03-16T12:33:42.671Z,75.91
2018-03-16T12:34:42.697Z,76.48
2018-03-16T12:35:42.713Z,76.10
2018-03-16T12:36:42.739Z,75.91
2018-03-16T12:37:42.753Z,75.91
2018-03-16T12:38:42.780Z,76.29
2018-03-16T12:39:42.820Z,76.10
2018-03-16T12:40:42.810Z,76.86
2018-03-16T12:41:42.834Z,76.67
2018-03-16T12:42:42.847Z,76.67
2018-03-16T12:43:42.865Z,76.76
2018-03-16T12:44:42.893Z,76.57
2018-03-16T12:45:42.914Z,76.95
2018-03-16T12:46:42.934Z,77.51
2018-03-16T12:47:42.940Z,76.57
2018-03-16T12:48:42.958Z,76.76
2018-03-16T12:49:42.978Z,76.48
2018-03-16T12:50:43.009Z,76.95
2018-03-16T12:51:43.025Z,76.48
2018-03-16T12:52:43.040Z,75.91
2018-03-16T12:53:43.055Z,75.81
2018-03-16T12:54:43.081Z,75.72